Time;durP1;ratioP1;P1;durP2;ratioP2;P2;SDS_P1;SDS_P2;PMS_P1;PMS_P2;Temp;Humidity;BMP_temperature;BMP_pressure;BME280_temperature;BME280_humidity;BME280_pressure;Samples;Min_cycle;Max_cycle;Signal;HPM_P1;HPM_P2
2023/03/09 00:01:44;;;;;;;60.43;30.97;;;1.20;1.00;;;;;;5058845;28;20295;-64
2023/03/09 00:04:14;;;;;;;61.20;28.27;;;1.20;1.00;;;;;;5059817;28;20225;-64
2023/03/09 00:06:42;;;;;;;54.27;28.10;;;1.30;1.00;;;;;;5058784;28;20207;-63
2023/03/09 00:09:09;;;;;;;54.80;28.90;;;1.20;1.00;;;;;;5060434;28;20754;-64
2023/03/09 00:11:40;;;;;;;59.20;29.20;;;1.20;1.00;;;;;;5060422;28;20215;-63
2023/03/09 00:14:07;;;;;;;58.20;28.10;;;1.20;1.00;;;;;;5059326;28;20226;-63
2023/03/09 00:16:37;;;;;;;58.37;29.63;;;1.20;1.00;;;;;;5059144;28;20191;-64
2023/03/09 00:19:04;;;;;;;56.20;28.53;;;1.30;1.00;;;;;;5058554;28;20281;-66
2023/03/09 00:21:34;;;;;;;54.10;27.53;;;1.20;1.00;;;;;;5057861;28;20667;-63
2023/03/09 00:24:07;;;;;;;58.33;30.03;;;1.20;1.00;;;;;;5041627;28;20301;-63
2023/03/09 00:26:36;;;;;;;53.43;27.83;;;1.30;1.00;;;;;;5049378;28;20238;-63
2023/03/09 00:29:05;;;;;;;62.00;30.07;;;1.30;1.00;;;;;;5058541;28;20667;-63
2023/03/09 00:31:32;;;;;;;61.67;30.27;;;1.30;1.00;;;;;;5057806;28;20210;-65
2023/03/09 00:33:59;;;;;;;60.30;30.43;;;1.30;1.00;;;;;;5059836;28;20206;-63
2023/03/09 00:36:28;;;;;;;61.03;29.10;;;1.30;1.00;;;;;;5057399;28;20599;-64
2023/03/09 00:38:58;;;;;;;55.93;28.17;;;1.30;1.00;;;;;;5042610;28;20256;-63
2023/03/09 00:41:27;;;;;;;57.50;28.40;;;1.30;1.00;;;;;;5056448;28;20628;-64
2023/03/09 00:43:54;;;;;;;61.17;28.40;;;1.30;1.00;;;;;;5041896;28;20203;-64
2023/03/09 00:46:21;;;;;;;59.63;29.33;;;1.30;1.00;;;;;;5063198;28;20243;-62
2023/03/09 00:48:48;;;;;;;54.90;28.80;;;1.30;1.00;;;;;;5066270;28;20223;-63
2023/03/09 00:51:15;;;;;;;55.87;27.60;;;1.30;1.00;;;;;;5058856;28;20286;-64
2023/03/09 00:53:42;;;;;;;53.47;27.57;;;1.40;1.00;;;;;;5056993;28;20562;-63
2023/03/09 00:56:15;;;;;;;65.40;29.53;;;1.30;1.00;;;;;;5059240;28;20222;-63
2023/03/09 00:58:42;;;;;;;57.97;29.27;;;1.40;1.00;;;;;;5060232;28;20286;-63
2023/03/09 01:01:10;;;;;;;59.87;30.13;;;1.40;1.00;;;;;;5049155;28;20605;-64
2023/03/09 01:03:39;;;;;;;57.37;28.70;;;1.40;1.00;;;;;;5042707;28;20231;-64
2023/03/09 01:06:07;;;;;;;55.40;29.40;;;1.40;1.00;;;;;;5057215;28;20560;-64
2023/03/09 01:08:34;;;;;;;54.93;28.67;;;1.40;1.00;;;;;;5041361;28;20215;-64
2023/03/09 01:11:06;;;;;;;55.27;29.23;;;1.40;1.00;;;;;;5060000;28;20205;-64
2023/03/09 01:13:33;;;;;;;60.57;27.67;;;1.40;1.00;;;;;;5057756;28;20267;-62
2023/03/09 01:16:00;;;;;;;52.73;29.50;;;1.50;13.10;;;;;;5058375;28;20655;-63
2023/03/09 01:18:30;;;;;;;58.50;30.20;;;1.50;58.80;;;;;;5056497;28;20210;-63
2023/03/09 01:20:58;;;;;;;55.73;29.37;;;1.50;70.00;;;;;;5058212;28;20577;-64
2023/03/09 01:23:26;;;;;;;54.07;29.17;;;1.50;76.40;;;;;;5058210;28;20199;-63
2023/03/09 01:25:53;;;;;;;57.43;30.53;;;1.50;77.10;;;;;;5058174;28;20207;-64
2023/03/09 01:28:20;;;;;;;57.70;29.70;;;1.50;99.90;;;;;;5057522;28;20250;-64
2023/03/09 01:30:47;;;;;;;57.00;30.53;;;1.50;99.90;;;;;;5040505;28;20307;-64
2023/03/09 01:33:14;;;;;;;57.27;30.20;;;1.60;99.90;;;;;;5056930;28;20685;-64
2023/03/09 01:35:41;;;;;;;56.93;30.33;;;1.60;99.90;;;;;;5057442;28;20187;-64
2023/03/09 01:38:08;;;;;;;55.07;29.33;;;1.50;99.90;;;;;;5055899;28;20740;-63
2023/03/09 01:40:35;;;;;;;53.53;29.93;;;1.50;99.90;;;;;;5040646;28;20578;-63
2023/03/09 01:43:27;;;;;;;59.67;30.77;;;1.50;99.90;;;;;;5056265;28;20240;-63
2023/03/09 01:46:23;;;;;;;55.07;28.73;;;1.40;99.90;;;;;;5059745;28;20243;-63
2023/03/09 01:49:14;;;;;;;49.77;27.13;;;1.50;99.90;;;;;;5057431;28;20296;-64
2023/03/09 01:52:14;;;;;;;53.23;28.00;;;1.50;99.90;;;;;;5056438;28;20654;-62
2023/03/09 01:54:50;;;;;;;51.10;28.47;;;1.50;99.90;;;;;;5075064;28;20202;-63
2023/03/09 01:57:26;;;;;;;53.80;28.83;;;1.50;99.90;;;;;;5056915;28;20217;-62
2023/03/09 01:59:56;;;;;;;50.47;28.37;;;1.60;99.90;;;;;;5049799;28;20206;-60
2023/03/09 02:02:29;;;;;;;50.53;29.33;;;1.60;99.90;;;;;;5058936;28;20192;-63
2023/03/09 02:05:03;;;;;;;57.17;30.87;;;1.50;99.90;;;;;;5054624;28;20226;-62
2023/03/09 02:07:34;;;;;;;62.03;32.47;;;1.50;99.90;;;;;;5056490;28;20762;-63
2023/03/09 02:10:17;;;;;;;54.80;29.53;;;1.60;99.90;;;;;;5065039;28;20813;-63
2023/03/09 02:12:52;;;;;;;52.70;28.27;;;1.60;99.90;;;;;;5057878;28;20261;-63
2023/03/09 02:15:22;;;;;;;51.10;29.40;;;1.60;99.90;;;;;;5057497;28;20195;-65
2023/03/09 02:17:49;;;;;;;49.90;28.57;;;1.60;99.90;;;;;;5057206;28;20534;-62
2023/03/09 02:20:38;;;;;;;57.53;32.83;;;1.60;99.90;;;;;;5056450;28;20230;-63
2023/03/09 02:23:18;;;;;;;55.00;30.10;;;1.70;99.90;;;;;;5057242;28;20187;-63
2023/03/09 02:25:53;;;;;;;56.63;32.07;;;1.60;18.90;;;;;;5048848;28;20207;-64
2023/03/09 02:28:21;;;;;;;56.53;30.97;;;1.70;42.60;;;;;;5055180;28;20214;-64
2023/03/09 02:30:49;;;;;;;46.83;28.03;;;1.60;12.10;;;;;;5057007;28;20688;-62
2023/03/09 02:33:28;;;;;;;49.33;27.27;;;1.70;11.20;;;;;;5058524;28;20520;-63
2023/03/09 02:35:59;;;;;;;47.77;26.77;;;1.60;1.00;;;;;;5061937;28;20198;-64
2023/03/09 02:38:27;;;;;;;54.87;29.50;;;1.60;1.00;;;;;;5039108;28;20260;-64
2023/03/09 02:40:58;;;;;;;51.60;28.17;;;1.70;1.00;;;;;;5056363;28;20689;-63
2023/03/09 02:43:35;;;;;;;47.83;27.27;;;1.70;1.00;;;;;;5056405;28;20192;-63
2023/03/09 02:46:03;;;;;;;51.13;28.43;;;1.70;1.00;;;;;;5057482;28;20239;-62
2023/03/09 02:48:33;;;;;;;50.47;26.70;;;1.70;1.00;;;;;;5054327;28;20219;-63
2023/03/09 02:51:00;;;;;;;47.57;26.90;;;1.70;1.00;;;;;;5052470;28;20207;-63
2023/03/09 02:53:27;;;;;;;60.10;34.33;;;1.70;1.00;;;;;;5056908;28;20195;-63
2023/03/09 02:55:55;;;;;;;50.87;28.43;;;1.80;1.00;;;;;;5062861;28;20294;-63
2023/03/09 02:58:22;;;;;;;49.20;27.83;;;1.70;1.00;;;;;;5058922;28;20210;-64
2023/03/09 03:00:49;;;;;;;49.03;27.83;;;1.70;1.00;;;;;;5060151;28;20200;-63
2023/03/09 03:03:19;;;;;;;49.77;28.30;;;1.70;1.00;;;;;;5049040;28;20335;-64
2023/03/09 03:05:48;;;;;;;49.67;28.43;;;1.70;1.00;;;;;;5041935;28;20207;-68
2023/03/09 03:08:16;;;;;;;47.60;27.53;;;1.70;1.00;;;;;;5043444;28;20208;-63
2023/03/09 03:10:56;;;;;;;48.57;28.47;;;1.70;1.00;;;;;;5047049;28;20239;-63
2023/03/09 03:13:23;;;;;;;46.37;27.13;;;1.70;1.00;;;;;;5058108;28;20666;-63
2023/03/09 03:15:56;;;;;;;49.87;27.97;;;1.60;1.00;;;;;;5043691;28;20294;-63
2023/03/09 03:18:23;;;;;;;50.47;27.67;;;1.60;1.00;;;;;;5049713;28;20199;-63
2023/03/09 03:20:50;;;;;;;51.13;28.33;;;1.60;1.00;;;;;;5058159;28;20207;-63
2023/03/09 03:23:17;;;;;;;49.37;27.87;;;1.70;1.00;;;;;;5059306;28;20209;-63
2023/03/09 03:25:49;;;;;;;54.40;31.07;;;1.70;1.00;;;;;;5059938;28;20678;-64
2023/03/09 03:28:16;;;;;;;49.40;28.57;;;1.70;1.00;;;;;;5059022;28;20210;-63
2023/03/09 03:30:52;;;;;;;45.87;26.83;;;1.70;1.00;;;;;;5044775;28;20217;-64
2023/03/09 03:33:23;;;;;;;47.73;27.47;;;1.70;1.00;;;;;;5059643;28;20199;-62
2023/03/09 03:35:52;;;;;;;48.37;28.50;;;1.70;1.00;;;;;;5058434;28;20242;-63
2023/03/09 03:38:19;;;;;;;48.57;27.90;;;1.70;1.00;;;;;;5060664;28;20230;-65
2023/03/09 03:40:46;;;;;;;47.13;27.53;;;1.70;1.00;;;;;;5060389;28;20227;-65
2023/03/09 03:43:13;;;;;;;47.87;28.70;;;1.70;1.00;;;;;;5060570;28;20269;-71
2023/03/09 03:45:44;;;;;;;52.50;29.10;;;1.70;1.00;;;;;;5060502;28;20243;-67
2023/03/09 03:48:11;;;;;;;45.70;27.40;;;1.70;1.00;;;;;;5058515;28;20199;-68
2023/03/09 03:50:39;;;;;;;48.87;28.87;;;1.70;1.00;;;;;;5060608;28;20230;-69
2023/03/09 03:53:06;;;;;;;45.97;27.07;;;1.80;1.00;;;;;;5065863;28;20665;-69
2023/03/09 03:55:33;;;;;;;49.33;29.20;;;1.80;1.00;;;;;;5059239;28;20198;-69
2023/03/09 03:58:02;;;;;;;49.57;29.00;;;1.70;1.00;;;;;;5061454;28;20199;-69
2023/03/09 04:00:29;;;;;;;47.53;28.00;;;1.70;1.00;;;;;;5059283;28;20289;-70
2023/03/09 04:03:00;;;;;;;48.03;28.13;;;1.70;1.00;;;;;;5057774;28;20195;-70
2023/03/09 04:05:35;;;;;;;52.03;29.33;;;1.70;1.00;;;;;;5057294;28;20607;-69
2023/03/09 04:08:03;;;;;;;50.40;29.63;;;1.70;1.00;;;;;;5041738;28;20230;-68
2023/03/09 04:10:30;;;;;;;50.33;28.80;;;1.70;1.00;;;;;;5058785;28;20297;-69
2023/03/09 04:12:57;;;;;;;48.97;29.13;;;1.70;1.00;;;;;;5057098;28;20289;-69
2023/03/09 04:15:25;;;;;;;52.13;30.37;;;1.70;1.00;;;;;;5060149;28;20287;-70
2023/03/09 04:17:53;;;;;;;53.50;29.20;;;1.70;1.00;;;;;;5059838;28;20214;-71
2023/03/09 04:20:20;;;;;;;47.10;28.10;;;1.70;1.00;;;;;;5057729;28;20212;-70
2023/03/09 04:22:49;;;;;;;46.57;27.67;;;1.70;1.00;;;;;;5058723;28;20201;-71
2023/03/09 04:25:18;;;;;;;45.67;28.37;;;1.70;1.00;;;;;;5058997;28;20199;-70
2023/03/09 04:27:45;;;;;;;50.20;29.23;;;1.70;1.00;;;;;;5043096;28;20679;-70
2023/03/09 04:30:20;;;;;;;51.60;29.20;;;1.70;99.90;;;;;;5057969;28;20729;-69
2023/03/09 04:32:49;;;;;;;47.27;29.03;;;1.80;99.90;;;;;;5049532;28;20200;-71
2023/03/09 04:35:17;;;;;;;48.80;28.83;;;1.70;99.90;;;;;;5057685;28;20202;-71
2023/03/09 04:37:46;;;;;;;48.70;28.57;;;1.80;99.90;;;;;;5060192;28;20257;-71
2023/03/09 04:40:15;;;;;;;47.87;29.23;;;1.70;99.90;;;;;;5055099;28;20205;-66
2023/03/09 04:42:42;;;;;;;47.23;29.53;;;1.70;99.90;;;;;;5058375;28;20195;-67
2023/03/09 04:45:10;;;;;;;46.57;28.43;;;1.80;99.90;;;;;;5058148;28;20242;-66
2023/03/09 04:47:39;;;;;;;51.90;30.03;;;1.80;99.90;;;;;;5043732;28;20256;-67
2023/03/09 04:50:07;;;;;;;45.77;27.53;;;1.80;99.90;;;;;;5058087;28;20664;-66
2023/03/09 04:52:38;;;;;;;47.80;28.53;;;1.80;99.90;;;;;;5056705;28;20219;-67
2023/03/09 04:55:06;;;;;;;47.10;28.43;;;1.80;99.90;;;;;;5056269;28;20663;-66
2023/03/09 04:57:33;;;;;;;49.77;29.13;;;1.80;99.90;;;;;;5057800;28;20225;-68
2023/03/09 05:00:04;;;;;;;49.13;28.30;;;1.70;99.90;;;;;;5056548;28;20286;-68
2023/03/09 05:02:31;;;;;;;49.83;28.67;;;1.70;99.90;;;;;;5058410;28;20263;-68
2023/03/09 05:04:58;;;;;;;52.10;29.47;;;1.80;99.90;;;;;;5058281;28;20253;-67
2023/03/09 05:07:25;;;;;;;46.90;27.43;;;1.80;99.90;;;;;;5058428;28;20286;-67
2023/03/09 05:09:53;;;;;;;50.43;29.00;;;1.80;99.90;;;;;;5058320;28;20218;-68
2023/03/09 05:12:21;;;;;;;47.67;27.57;;;1.80;99.90;;;;;;5058057;28;20222;-69
2023/03/09 05:14:48;;;;;;;47.43;28.27;;;1.80;99.90;;;;;;5059220;28;20213;-68
2023/03/09 05:17:17;;;;;;;48.60;28.13;;;1.80;99.90;;;;;;5056388;28;20259;-67
2023/03/09 05:19:45;;;;;;;45.87;27.80;;;1.80;99.90;;;;;;5056836;28;20633;-67
2023/03/09 05:22:12;;;;;;;46.83;27.13;;;1.80;99.90;;;;;;5055217;28;20267;-68
2023/03/09 05:24:39;;;;;;;51.77;29.63;;;1.80;99.90;;;;;;5057486;28;20274;-66
2023/03/09 05:27:06;;;;;;;47.00;27.77;;;1.70;99.90;;;;;;5055220;28;20584;-67
2023/03/09 05:29:35;;;;;;;49.90;29.73;;;1.70;99.90;;;;;;5056327;28;20218;-67
2023/03/09 05:32:02;;;;;;;52.37;29.50;;;1.70;93.00;;;;;;5057306;28;20203;-68
2023/03/09 05:34:32;;;;;;;48.07;28.43;;;1.70;31.10;;;;;;5057388;28;20203;-66
2023/03/09 05:36:59;;;;;;;44.97;27.03;;;1.80;35.80;;;;;;5071248;28;20256;-68
2023/03/09 05:39:28;;;;;;;47.73;26.90;;;1.80;44.50;;;;;;5057760;28;20207;-66
2023/03/09 05:41:55;;;;;;;45.97;28.27;;;1.80;2.30;;;;;;5040645;28;20195;-67
2023/03/09 05:44:43;;;;;;;46.77;29.40;;;1.70;1.00;;;;;;5057563;28;20713;-67
2023/03/09 05:47:10;;;;;;;51.53;29.33;;;1.80;42.90;;;;;;5040356;28;20754;-67
2023/03/09 05:49:37;;;;;;;47.17;28.43;;;1.80;45.00;;;;;;5064863;28;20290;-66
2023/03/09 05:52:04;;;;;;;46.57;27.97;;;1.80;37.90;;;;;;5052976;28;20194;-67
2023/03/09 05:54:33;;;;;;;47.40;28.90;;;1.80;11.60;;;;;;5054683;28;20195;-66
2023/03/09 05:57:05;;;;;;;47.47;28.10;;;1.80;9.10;;;;;;5039072;28;20194;-67
2023/03/09 05:59:33;;;;;;;47.47;27.93;;;1.80;1.00;;;;;;5041156;28;20227;-66
2023/03/09 06:02:00;;;;;;;48.40;29.53;;;1.80;1.00;;;;;;5057033;28;20213;-66
2023/03/09 06:04:29;;;;;;;45.60;27.40;;;1.80;1.00;;;;;;5057947;28;20583;-66
2023/03/09 06:07:01;;;;;;;45.90;27.47;;;1.80;1.00;;;;;;5064896;28;20684;-67
2023/03/09 06:09:34;;;;;;;47.90;28.40;;;1.80;1.00;;;;;;5056920;28;20274;-67
2023/03/09 06:12:04;;;;;;;48.30;27.27;;;1.80;1.00;;;;;;5057592;28;20691;-67
2023/03/09 06:14:32;;;;;;;48.00;27.60;;;1.80;1.00;;;;;;5048519;28;20282;-67
2023/03/09 06:17:01;;;;;;;44.53;27.27;;;1.80;1.00;;;;;;5054374;28;20254;-66
2023/03/09 06:19:28;;;;;;;47.83;27.83;;;1.80;1.00;;;;;;5055245;28;20204;-66
2023/03/09 06:21:55;;;;;;;53.37;26.33;;;1.90;1.00;;;;;;5063573;28;20258;-66
2023/03/09 06:24:22;;;;;;;39.73;24.83;;;1.90;1.00;;;;;;5053852;28;20589;-67
2023/03/09 06:26:50;;;;;;;46.10;26.93;;;1.90;1.00;;;;;;5072421;28;20253;-66
2023/03/09 06:29:28;;;;;;;46.93;27.43;;;1.90;1.00;;;;;;5057084;28;20225;-66
2023/03/09 06:31:57;;;;;;;48.93;28.20;;;1.90;1.00;;;;;;5070009;28;20245;-65
2023/03/09 06:34:24;;;;;;;44.80;27.80;;;1.90;1.00;;;;;;5054237;28;20230;-67
2023/03/09 06:36:51;;;;;;;43.87;27.17;;;2.00;1.00;;;;;;5059045;28;20718;-66
2023/03/09 06:39:18;;;;;;;45.13;27.23;;;2.00;1.00;;;;;;5058760;28;20666;-66
2023/03/09 06:41:46;;;;;;;42.53;26.27;;;2.00;99.90;;;;;;5059390;28;20217;-66
2023/03/09 06:44:34;;;;;;;45.33;27.43;;;1.90;99.90;;;;;;5046265;28;20206;-66
2023/03/09 06:47:01;;;;;;;43.50;26.80;;;2.00;99.90;;;;;;5058589;28;20290;-66
2023/03/09 06:49:29;;;;;;;46.17;28.03;;;2.00;99.90;;;;;;5043925;28;20225;-66
2023/03/09 06:51:58;;;;;;;45.60;26.93;;;2.10;99.90;;;;;;5058483;28;20199;-67
2023/03/09 06:54:26;;;;;;;39.47;25.50;;;2.10;99.90;;;;;;5058856;28;20199;-66
2023/03/09 06:57:02;;;;;;;41.93;25.67;;;2.20;99.90;;;;;;5056820;28;20612;-66
2023/03/09 06:59:29;;;;;;;42.57;27.60;;;2.20;99.90;;;;;;5057301;28;20203;-66
2023/03/09 07:01:57;;;;;;;43.67;26.83;;;2.20;1.00;;;;;;5057325;28;20655;-66
2023/03/09 07:04:24;;;;;;;44.63;28.40;;;2.20;99.90;;;;;;5056201;28;22182;-66
2023/03/09 07:06:51;;;;;;;45.47;27.47;;;2.10;1.00;;;;;;5058686;28;20294;-67
2023/03/09 07:09:18;;;;;;;43.10;27.50;;;2.20;99.90;;;;;;5058297;28;20252;-66
2023/03/09 07:11:46;;;;;;;41.43;26.33;;;2.40;99.90;;;;;;5059493;28;20203;-66
2023/03/09 07:14:14;;;;;;;41.40;26.97;;;2.40;99.90;;;;;;5056719;28;20203;-66
2023/03/09 07:16:42;;;;;;;42.37;26.07;;;2.40;99.90;;;;;;5039918;28;20242;-66
2023/03/09 07:19:09;;;;;;;43.07;27.90;;;2.50;99.90;;;;;;5076063;28;20204;-66
2023/03/09 07:21:37;;;;;;;39.67;26.70;;;2.60;99.90;;;;;;5056042;28;20230;-66
2023/03/09 07:24:04;;;;;;;46.30;27.20;;;2.50;1.00;;;;;;5056130;28;20635;-66
2023/03/09 07:26:31;;;;;;;44.53;28.13;;;2.60;1.00;;;;;;5057260;28;20195;-65
2023/03/09 07:28:58;;;;;;;44.27;27.37;;;2.60;1.00;;;;;;5059019;28;20655;-65
2023/03/09 07:31:25;;;;;;;40.47;26.00;;;2.80;1.00;;;;;;5060962;28;20218;-65
2023/03/09 07:33:52;;;;;;;40.57;25.63;;;2.70;1.00;;;;;;5067064;28;20206;-66
2023/03/09 07:36:19;;;;;;;47.00;29.47;;;2.80;1.00;;;;;;5058199;28;20271;-66
2023/03/09 07:38:47;;;;;;;42.37;26.73;;;3.00;1.00;;;;;;5058001;28;20651;-66
2023/03/09 07:41:14;;;;;;;41.33;26.93;;;3.00;1.00;;;;;;5057861;28;20752;-66
2023/03/09 07:43:43;;;;;;;43.17;28.00;;;3.00;99.90;;;;;;5066727;28;20730;-66
2023/03/09 07:46:29;;;;;;;45.03;26.50;;;2.90;20.50;;;;;;5059108;28;20243;-65
2023/03/09 07:48:56;;;;;;;44.17;27.17;;;3.00;99.90;;;;;;5057181;28;20344;-66
2023/03/09 07:51:23;;;;;;;40.83;26.93;;;3.10;99.90;;;;;;5056037;28;20283;-65
2023/03/09 07:53:50;;;;;;;42.17;27.33;;;3.20;99.90;;;;;;5057651;28;20196;-66
2023/03/09 07:56:18;;;;;;;43.17;26.87;;;3.20;32.10;;;;;;5050994;28;20203;-65
2023/03/09 07:58:46;;;;;;;39.00;27.00;;;3.20;1.00;;;;;;5058311;28;20202;-65
2023/03/09 08:01:17;;;;;;;43.37;27.37;;;3.20;1.00;;;;;;5057710;28;20256;-66
2023/03/09 08:03:45;;;;;;;41.13;25.73;;;3.20;1.00;;;;;;5069806;28;21340;-66
2023/03/09 08:06:14;;;;;;;37.73;25.83;;;3.20;1.00;;;;;;5055381;28;20200;-66
2023/03/09 08:08:41;;;;;;;39.90;26.13;;;3.20;1.00;;;;;;5064430;28;20199;-65
2023/03/09 08:11:08;;;;;;;37.87;25.77;;;3.20;1.00;;;;;;5057582;28;20620;-66
2023/03/09 08:13:36;;;;;;;46.37;27.90;;;3.20;1.00;;;;;;5057715;28;20203;-66
2023/03/09 08:16:06;;;;;;;43.70;26.63;;;3.20;1.00;;;;;;5065774;28;20269;-66
2023/03/09 08:18:34;;;;;;;44.43;27.67;;;3.20;1.00;;;;;;5050028;28;20230;-66
2023/03/09 08:21:13;;;;;;;43.90;27.70;;;3.20;1.00;;;;;;5056464;28;20203;-66
2023/03/09 08:23:43;;;;;;;41.97;26.00;;;3.20;1.00;;;;;;5053682;28;20202;-66
2023/03/09 08:26:12;;;;;;;47.10;26.90;;;3.10;1.00;;;;;;5057003;28;20191;-66
2023/03/09 08:28:41;;;;;;;46.60;27.83;;;3.00;1.00;;;;;;5057709;28;20541;-66
2023/03/09 08:31:14;;;;;;;48.53;28.53;;;3.10;1.00;;;;;;5056521;28;20894;-66
2023/03/09 08:33:41;;;;;;;44.73;27.13;;;3.20;1.00;;;;;;5054743;28;20574;-66
2023/03/09 08:36:17;;;;;;;49.03;27.97;;;3.30;1.00;;;;;;5056085;28;20191;-66
2023/03/09 08:38:46;;;;;;;44.73;26.77;;;3.30;1.00;;;;;;5058127;28;20299;-65
2023/03/09 08:41:13;;;;;;;43.07;26.93;;;3.40;1.00;;;;;;5057033;28;20203;-66
2023/03/09 08:43:40;;;;;;;38.63;25.50;;;3.50;1.00;;;;;;5057630;28;20562;-66
2023/03/09 08:46:07;;;;;;;42.63;26.30;;;3.60;1.00;;;;;;5055415;28;20710;-65
2023/03/09 08:48:35;;;;;;;42.83;27.60;;;3.60;1.00;;;;;;5059357;28;20454;-65
2023/03/09 08:51:05;;;;;;;40.93;26.43;;;3.60;1.00;;;;;;5057361;28;20616;-65
2023/03/09 08:53:37;;;;;;;41.47;26.00;;;3.60;1.00;;;;;;5055576;28;20218;-65
2023/03/09 08:56:06;;;;;;;41.27;26.30;;;3.70;1.00;;;;;;5056847;28;20743;-66
2023/03/09 08:58:34;;;;;;;42.20;26.47;;;3.70;99.90;;;;;;5055286;28;20854;-65
2023/03/09 09:01:03;;;;;;;45.03;27.57;;;3.80;99.90;;;;;;5065139;28;20237;-66
2023/03/09 09:03:33;;;;;;;42.80;26.87;;;3.80;99.90;;;;;;5055124;28;20675;-66
2023/03/09 09:06:19;;;;;;;39.33;25.87;;;3.80;99.90;;;;;;5056996;28;20748;-66
2023/03/09 09:08:46;;;;;;;40.60;26.57;;;3.90;99.90;;;;;;5055743;28;21154;-65
2023/03/09 09:11:15;;;;;;;40.47;27.07;;;3.90;99.90;;;;;;5055363;28;20215;-66
2023/03/09 09:13:43;;;;;;;44.27;27.30;;;4.00;99.90;;;;;;5053269;28;20623;-67
2023/03/09 09:16:12;;;;;;;38.63;25.77;;;3.90;99.90;;;;;;5056981;28;20732;-65
2023/03/09 09:18:40;;;;;;;42.07;26.23;;;3.80;99.90;;;;;;5057684;28;20298;-67
2023/03/09 09:21:12;;;;;;;42.13;27.07;;;3.70;99.90;;;;;;5038556;28;20199;-66
2023/03/09 09:23:41;;;;;;;41.43;26.40;;;3.90;99.90;;;;;;5041095;28;20289;-66
2023/03/09 09:26:10;;;;;;;39.17;25.13;;;4.00;99.90;;;;;;5057532;28;20664;-66
2023/03/09 09:28:39;;;;;;;37.93;24.43;;;4.10;99.90;;;;;;5056612;28;20310;-66
2023/03/09 09:31:09;;;;;;;36.87;23.90;;;4.30;99.90;;;;;;5054602;28;20687;-65
2023/03/09 09:33:37;;;;;;;39.27;25.67;;;4.40;99.90;;;;;;5037625;28;20540;-65
2023/03/09 09:36:09;;;;;;;38.70;24.27;;;4.50;99.90;;;;;;5043014;28;20211;-66
2023/03/09 09:38:36;;;;;;;33.53;23.70;;;4.60;99.90;;;;;;5054629;28;20191;-65
2023/03/09 09:41:24;;;;;;;33.63;23.67;;;4.90;99.90;;;;;;5037664;28;20553;-65
2023/03/09 09:43:55;;;;;;;34.43;23.17;;;5.20;99.90;;;;;;5054198;28;20658;-66
2023/03/09 09:46:23;;;;;;;33.57;22.10;;;5.20;78.60;;;;;;5053539;28;20305;-66
2023/03/09 09:48:50;;;;;;;34.07;22.30;;;5.30;49.40;;;;;;5057928;28;20196;-66
2023/03/09 09:51:38;;;;;;;33.27;23.03;;;5.40;34.80;;;;;;5054797;28;20302;-66
2023/03/09 09:54:14;;;;;;;35.53;23.03;;;5.50;11.40;;;;;;5059947;28;20537;-66
2023/03/09 09:57:03;;;;;;;31.87;21.80;;;5.40;14.60;;;;;;5052058;28;20674;-66
2023/03/09 09:59:41;;;;;;;30.50;22.33;;;5.10;1.00;;;;;;5050130;28;20200;-66
2023/03/09 10:02:08;;;;;;;29.20;20.40;;;5.50;16.50;;;;;;5054399;28;20191;-66
2023/03/09 10:04:46;;;;;;;29.67;20.50;;;5.60;1.00;;;;;;5038745;28;20352;-66
2023/03/09 10:07:19;;;;;;;28.33;20.60;;;6.00;1.00;;;;;;5053153;28;20191;-66
2023/03/09 10:09:54;;;;;;;37.27;24.20;;;6.20;1.00;;;;;;5056047;28;20684;-66
2023/03/09 10:12:21;;;;;;;29.03;20.33;;;6.60;1.00;;;;;;5065979;28;20183;-66
2023/03/09 10:14:55;;;;;;;29.47;20.87;;;6.40;1.00;;;;;;5057115;28;20522;-66
2023/03/09 10:17:42;;;;;;;29.77;20.63;;;6.20;1.00;;;;;;5040159;28;20535;-70
2023/03/09 10:20:22;;;;;;;26.27;18.87;;;6.20;1.00;;;;;;5058374;28;20199;-66
2023/03/09 10:22:52;;;;;;;25.93;18.87;;;6.00;1.00;;;;;;5061963;28;20196;-67
2023/03/09 10:25:21;;;;;;;25.20;19.83;;;6.10;1.00;;;;;;5059473;28;20617;-66
2023/03/09 10:27:57;;;;;;;27.83;18.90;;;5.90;1.00;;;;;;5068270;28;20201;-66
2023/03/09 10:30:43;;;;;;;27.33;18.60;;;5.80;1.00;;;;;;5059326;28;20233;-66
2023/03/09 10:33:43;;;;;;;28.77;20.43;;;5.60;1.00;;;;;;5068347;28;20195;-66
2023/03/09 10:36:24;;;;;;;30.93;19.97;;;5.50;1.00;;;;;;5055938;28;20283;-67
2023/03/09 10:38:54;;;;;;;34.07;23.37;;;5.40;1.00;;;;;;5043280;28;20195;-66
2023/03/09 10:41:22;;;;;;;30.00;20.87;;;5.40;1.00;;;;;;5056238;28;20237;-66
2023/03/09 10:43:53;;;;;;;41.60;26.80;;;5.40;1.00;;;;;;5058246;28;20211;-67
2023/03/09 10:46:22;;;;;;;29.27;21.60;;;5.60;12.00;;;;;;5064397;28;20763;-66
2023/03/09 10:49:09;;;;;;;29.23;20.20;;;5.80;5.30;;;;;;5045679;28;20838;-66
2023/03/09 10:51:40;;;;;;;29.43;19.90;;;5.80;4.30;;;;;;5059239;28;20924;-67
2023/03/09 10:54:17;;;;;;;31.57;21.27;;;5.80;1.00;;;;;;5062560;28;20638;-66
2023/03/09 10:56:46;;;;;;;31.63;21.47;;;5.70;1.00;;;;;;5055268;28;20198;-66
2023/03/09 10:59:19;;;;;;;31.37;21.37;;;5.80;1.00;;;;;;5055035;28;20278;-67
2023/03/09 11:01:52;;;;;;;36.13;23.70;;;5.70;1.00;;;;;;5073586;28;20203;-66
2023/03/09 11:04:22;;;;;;;34.93;23.40;;;5.80;10.00;;;;;;5057019;28;20238;-67
2023/03/09 11:07:01;;;;;;;33.70;22.30;;;5.80;1.00;;;;;;5055074;28;20207;-66
2023/03/09 11:09:41;;;;;;;36.40;24.03;;;5.50;1.00;;;;;;5054308;28;20199;-67
2023/03/09 11:12:23;;;;;;;36.33;22.60;;;5.30;1.00;;;;;;5051658;28;20318;-66
2023/03/09 11:15:27;;;;;;;33.37;22.57;;;5.30;1.00;;;;;;5055465;28;20196;-66
2023/03/09 11:17:56;;;;;;;35.67;24.03;;;5.30;1.00;;;;;;5045305;28;20310;-65
2023/03/09 11:20:32;;;;;;;39.43;25.80;;;5.60;1.00;;;;;;5052534;28;20437;-66
2023/03/09 11:23:04;;;;;;;40.00;25.90;;;5.40;1.00;;;;;;5061314;28;20191;-66
2023/03/09 11:26:10;;;;;;;35.03;23.17;;;5.70;1.00;;;;;;5065131;28;20187;-66
2023/03/09 11:28:45;;;;;;;35.50;23.60;;;5.60;1.00;;;;;;4986796;28;20565;-66
2023/03/09 11:31:17;;;;;;;37.33;23.43;;;5.50;1.00;;;;;;5049715;28;20223;-66
2023/03/09 11:33:47;;;;;;;32.90;22.33;;;5.60;1.00;;;;;;5070322;28;20690;-66
2023/03/09 11:36:22;;;;;;;30.70;20.60;;;5.70;1.00;;;;;;5052580;28;21438;-66
2023/03/09 11:38:49;;;;;;;29.93;20.77;;;5.60;1.00;;;;;;5056705;28;20615;-66
2023/03/09 11:41:39;;;;;;;29.93;21.07;;;5.60;1.00;;;;;;5056503;28;20203;-67
2023/03/09 11:44:31;;;;;;;29.97;21.33;;;5.60;1.00;;;;;;5056543;28;20670;-66
2023/03/09 11:47:04;;;;;;;30.80;20.50;;;5.70;1.00;;;;;;5056889;28;20684;-66
2023/03/09 11:49:33;;;;;;;28.47;19.27;;;5.50;1.00;;;;;;5055001;28;20195;-65
2023/03/09 11:52:00;;;;;;;32.83;20.90;;;5.40;1.00;;;;;;5055850;28;20215;-67
2023/03/09 11:54:39;;;;;;;31.37;21.67;;;5.60;1.00;;;;;;5055812;28;20902;-66
2023/03/09 11:57:10;;;;;;;32.93;22.27;;;5.90;1.00;;;;;;5050246;28;20288;-66
2023/03/09 11:59:51;;;;;;;33.17;21.83;;;5.80;1.00;;;;;;5053673;28;20273;-66
2023/03/09 12:02:45;;;;;;;36.50;23.90;;;5.90;1.00;;;;;;5056446;28;20206;-65
2023/03/09 12:05:14;;;;;;;37.63;23.27;;;6.10;1.00;;;;;;5049370;28;20220;-67
2023/03/09 12:08:11;;;;;;;36.50;23.83;;;6.20;1.00;;;;;;5054202;28;20196;-66
2023/03/09 12:10:50;;;;;;;35.93;23.57;;;6.20;1.00;;;;;;5053680;28;20238;-67
2023/03/09 12:13:25;;;;;;;40.40;24.60;;;6.50;1.00;;;;;;5048359;28;20218;-68
2023/03/09 12:16:15;;;;;;;35.47;24.33;;;6.50;1.00;;;;;;5052378;28;20298;-67
2023/03/09 12:18:54;;;;;;;34.27;23.17;;;6.40;1.00;;;;;;5035661;28;20282;-66
2023/03/09 12:21:31;;;;;;;36.33;23.70;;;6.20;1.00;;;;;;5050928;28;20497;-65
2023/03/09 12:24:01;;;;;;;37.20;23.73;;;6.00;1.00;;;;;;5050168;28;20199;-66
2023/03/09 12:26:32;;;;;;;32.40;22.37;;;6.10;1.00;;;;;;5056238;28;20297;-66
2023/03/09 12:28:59;;;;;;;33.83;21.57;;;6.30;1.00;;;;;;5057904;28;20211;-66
2023/03/09 12:31:31;;;;;;;36.07;23.73;;;6.40;1.00;;;;;;5053928;28;20287;-67
2023/03/09 12:33:58;;;;;;;37.53;23.63;;;6.60;1.00;;;;;;5056237;28;20249;-67
2023/03/09 12:36:29;;;;;;;36.03;23.47;;;6.40;1.00;;;;;;5053300;28;20600;-66
2023/03/09 12:39:24;;;;;;;41.20;25.77;;;6.50;1.00;;;;;;5045397;28;20801;-66
2023/03/09 12:42:25;;;;;;;49.30;29.50;;;6.20;1.00;;;;;;5055101;28;20702;-67
2023/03/09 12:44:52;;;;;;;49.57;29.73;;;6.00;1.00;;;;;;5056880;28;20264;-65
2023/03/09 12:47:36;;;;;;;47.17;28.00;;;6.00;1.00;;;;;;5056842;28;20284;-65
2023/03/09 12:50:40;;;;;;;46.60;28.37;;;6.00;1.00;;;;;;5058425;28;20195;-66
2023/03/09 12:53:30;;;;;;;46.33;28.17;;;5.70;1.00;;;;;;5038422;28;20260;-66
2023/03/09 12:56:00;;;;;;;49.73;29.60;;;5.50;1.00;;;;;;5055178;28;20658;-66
2023/03/09 12:58:40;;;;;;;51.20;30.13;;;5.30;1.00;;;;;;5056014;28;20781;-66
2023/03/09 13:01:16;;;;;;;53.53;29.90;;;5.10;1.00;;;;;;5055287;28;20285;-67
2023/03/09 13:04:07;;;;;;;48.10;28.37;;;5.20;1.00;;;;;;5056524;28;20213;-67
2023/03/09 13:06:41;;;;;;;54.63;30.37;;;5.20;1.00;;;;;;5062944;28;20698;-66